Terminal Aerodrome Forecast
Issued by NWS

Home | Current Version | Previous Version | Text Only | Print | Product List | Glossary Off
Versions: 1 2 3 4 5 6 7 8 9 10 11 12

000
FTUS45 KGGW 281120
TAFGDV
TAF
KGDV 281120Z 2812/2912 36010KT P6SM OVC110
     FM281400 02011KT P6SM BKN060
     FM290500 30004KT P6SM BKN090
     FM291100 00000KT P6SM BKN130
      AMD LTD TO CLD VIS AND WIND=

USA.gov is the U.S. government's official web portal to all federal, state and local government web resources and services.